Time;durP1;ratioP1;P1;durP2;ratioP2;P2;SDS_P1;SDS_P2;PMS_P1;PMS_P2;Temp;Humidity;BMP_temperature;BMP_pressure;BME280_temperature;BME280_humidity;BME280_pressure;Samples;Min_cycle;Max_cycle;Signal;HPM_P1;HPM_P2
2023/03/27 00:02:07;;;;;;;2.38;0.80;;;18.20;1.00;;;;;;5011877;28;20049;-38
2023/03/27 00:04:34;;;;;;;1.83;0.38;;;18.20;1.00;;;;;;5011350;28;20038;-37
2023/03/27 00:07:02;;;;;;;1.02;0.43;;;18.10;1.00;;;;;;5012057;28;20045;-37
2023/03/27 00:09:30;;;;;;;1.88;0.60;;;18.10;1.00;;;;;;5012093;28;20038;-37
2023/03/27 00:11:58;;;;;;;2.83;0.55;;;18.10;1.00;;;;;;5011920;28;20532;-37
2023/03/27 00:14:24;;;;;;;1.58;0.63;;;18.10;1.00;;;;;;5011284;28;20042;-37
2023/03/27 00:16:51;;;;;;;1.05;0.30;;;18.00;1.00;;;;;;5011895;28;20041;-38
2023/03/27 00:19:18;;;;;;;1.13;0.40;;;18.00;1.00;;;;;;5011957;28;20490;-37
2023/03/27 00:21:45;;;;;;;2.65;0.28;;;18.00;1.00;;;;;;5011889;28;20045;-37
2023/03/27 00:24:12;;;;;;;2.22;0.52;;;18.00;1.00;;;;;;5011024;28;20425;-37
2023/03/27 00:26:39;;;;;;;2.10;0.88;;;17.90;1.00;;;;;;5011928;28;20045;-37
2023/03/27 00:29:06;;;;;;;2.17;0.38;;;17.90;1.00;;;;;;4994113;28;20057;-37
2023/03/27 00:31:34;;;;;;;1.40;0.40;;;17.90;1.00;;;;;;5011746;28;20064;-37
2023/03/27 00:34:02;;;;;;;1.45;0.30;;;17.90;1.00;;;;;;5011696;28;20057;-38
2023/03/27 00:36:30;;;;;;;1.83;0.63;;;17.80;1.00;;;;;;5015665;28;20042;-37
2023/03/27 00:38:56;;;;;;;3.97;0.80;;;17.90;1.00;;;;;;5015577;28;20452;-37
2023/03/27 00:41:23;;;;;;;2.72;0.43;;;17.80;1.00;;;;;;4997875;28;20046;-37
2023/03/27 00:43:53;;;;;;;4.03;0.40;;;17.80;1.00;;;;;;5014312;28;20061;-38
2023/03/27 00:46:27;;;;;;;2.58;0.40;;;17.80;1.00;;;;;;5015456;28;20045;-37
2023/03/27 00:48:55;;;;;;;3.72;1.08;;;17.80;1.00;;;;;;5015337;28;20037;-37
2023/03/27 00:51:23;;;;;;;1.77;0.32;;;17.70;1.00;;;;;;4997459;28;20038;-37
2023/03/27 00:53:51;;;;;;;1.52;0.52;;;17.70;1.00;;;;;;4996870;28;20104;-37
2023/03/27 00:56:18;;;;;;;3.03;0.43;;;17.70;1.00;;;;;;4997515;28;20046;-37
2023/03/27 00:58:50;;;;;;;2.95;0.50;;;17.70;1.00;;;;;;4997478;28;20045;-37
2023/03/27 01:01:18;;;;;;;2.10;0.52;;;17.70;1.00;;;;;;5014993;28;20092;-37
2023/03/27 01:03:47;;;;;;;1.17;0.30;;;17.60;1.00;;;;;;5014166;28;20512;-37
2023/03/27 01:06:16;;;;;;;3.67;0.38;;;17.60;1.00;;;;;;4997665;28;20452;-37
2023/03/27 01:08:45;;;;;;;3.35;0.40;;;17.60;1.00;;;;;;5014791;28;20038;-37
2023/03/27 01:11:30;;;;;;;2.47;0.55;;;17.60;1.00;;;;;;5014811;28;20038;-37
2023/03/27 01:14:07;;;;;;;1.38;0.65;;;17.60;1.00;;;;;;5014145;28;20180;-37
2023/03/27 01:16:40;;;;;;;2.25;0.40;;;17.50;1.00;;;;;;4997227;28;20061;-37
2023/03/27 01:19:37;;;;;;;1.25;0.35;;;17.50;1.00;;;;;;4996978;28;20050;-37
2023/03/27 01:22:30;;;;;;;1.90;0.40;;;17.50;1.00;;;;;;4997055;28;20465;-38
2023/03/27 01:24:56;;;;;;;2.60;0.67;;;17.50;1.00;;;;;;4996855;28;20050;-38
2023/03/27 01:27:51;;;;;;;1.83;0.73;;;17.50;1.00;;;;;;4996944;28;20291;-37
2023/03/27 01:30:55;;;;;;;2.72;0.30;;;17.40;1.00;;;;;;4997009;28;20050;-37
2023/03/27 01:33:28;;;;;;;;;;;17.40;1.00;;;;;;4932737;28;20046;-37
2023/03/27 01:36:15;;;;;;;0.50;0.30;;;17.40;1.00;;;;;;4996825;28;19976;-37
2023/03/27 01:39:06;;;;;;;3.05;0.68;;;17.30;1.00;;;;;;4996803;28;20279;-37
2023/03/27 01:41:45;;;;;;;1.52;0.40;;;17.30;1.00;;;;;;4996662;28;20092;-37
2023/03/27 01:44:26;;;;;;;1.42;0.43;;;17.30;1.00;;;;;;4995697;28;20042;-37
2023/03/27 01:47:51;;;;;;;2.90;0.82;;;17.30;1.00;;;;;;4996635;28;20042;-37
2023/03/27 01:50:40;;;;;;;2.72;0.57;;;17.30;1.00;;;;;;4915288;29;20048;-37
2023/03/27 01:53:36;;;;;;;1.63;0.40;;;17.30;1.00;;;;;;4899030;29;20151;-37
2023/03/27 01:56:12;;;;;;;3.42;0.43;;;17.20;1.00;;;;;;4973802;28;20056;-37
2023/03/27 01:58:46;;;;;;;1.27;0.43;;;17.20;1.00;;;;;;4996508;28;20046;-37
2023/03/27 02:01:19;;;;;;;2.05;0.57;;;17.20;1.00;;;;;;5013958;28;20409;-37
2023/03/27 02:03:53;;;;;;;3.03;0.60;;;17.20;1.00;;;;;;5013249;28;20046;-37
2023/03/27 02:06:22;;;;;;;;;;;17.20;1.00;;;;;;5014372;28;20410;-37
2023/03/27 02:09:13;;;;;;;3.15;0.40;;;17.10;1.00;;;;;;4996249;28;19925;-37
2023/03/27 02:11:48;;;;;;;2.67;0.52;;;17.10;1.00;;;;;;4996121;28;20042;-37
2023/03/27 02:14:20;;;;;;;2.55;0.30;;;17.10;1.00;;;;;;4995376;28;20413;-37
2023/03/27 02:16:53;;;;;;;4.45;0.50;;;17.00;1.00;;;;;;5013688;28;20038;-37
2023/03/27 02:19:28;;;;;;;2.47;0.30;;;17.10;1.00;;;;;;4996099;28;20057;-37
2023/03/27 02:21:55;;;;;;;1.60;0.38;;;17.10;1.00;;;;;;4995758;28;20483;-37
2023/03/27 02:24:23;;;;;;;1.67;0.60;;;17.10;1.00;;;;;;4995281;28;20041;-37
2023/03/27 02:27:08;;;;;;;3.40;0.32;;;17.10;1.00;;;;;;5013792;28;20432;-37
2023/03/27 02:30:16;;;;;;;3.50;0.70;;;17.00;1.00;;;;;;5013413;28;20069;-37
2023/03/27 02:33:07;;;;;;;2.53;0.25;;;17.00;1.00;;;;;;5012673;28;20042;-37
2023/03/27 02:36:00;;;;;;;1.13;0.20;;;16.90;1.00;;;;;;4995762;28;20053;-38
2023/03/27 02:38:27;;;;;;;2.08;0.47;;;16.90;1.00;;;;;;4995571;28;20056;-37
2023/03/27 02:41:19;;;;;;;1.23;0.28;;;16.90;1.00;;;;;;4995491;28;20041;-37
2023/03/27 02:43:58;;;;;;;1.73;0.40;;;16.90;1.00;;;;;;5012389;28;20085;-37
2023/03/27 02:46:58;;;;;;;0.88;0.32;;;16.90;1.00;;;;;;4995405;28;20050;-37
2023/03/27 02:49:32;;;;;;;3.53;0.50;;;16.90;1.00;;;;;;4995501;28;20533;-37
2023/03/27 02:52:08;;;;;;;4.53;0.65;;;16.90;1.00;;;;;;4995204;28;20042;-38
2023/03/27 02:54:41;;;;;;;1.92;0.35;;;16.80;1.00;;;;;;4994892;28;20478;-37
2023/03/27 02:57:14;;;;;;;1.65;0.40;;;16.80;1.00;;;;;;4994518;28;20056;-37
2023/03/27 03:00:19;;;;;;;2.05;0.75;;;16.80;1.00;;;;;;4959116;28;20061;-37
2023/03/27 03:03:29;;;;;;;2.60;0.20;;;16.80;1.00;;;;;;4994412;28;20069;-37
2023/03/27 03:06:06;;;;;;;1.20;0.30;;;16.80;1.00;;;;;;4995067;28;20060;-37
2023/03/27 03:08:37;;;;;;;1.45;0.50;;;16.70;1.00;;;;;;4995207;28;20056;-37
2023/03/27 03:11:09;;;;;;;5.80;1.15;;;16.70;1.00;;;;;;4995102;28;20042;-37
2023/03/27 03:13:36;;;;;;;2.22;0.55;;;16.70;1.00;;;;;;5011850;28;20052;-37
2023/03/27 03:16:04;;;;;;;3.92;0.80;;;16.70;1.00;;;;;;5012627;28;20073;-37
2023/03/27 03:18:32;;;;;;;1.45;0.28;;;16.70;1.00;;;;;;4994955;28;20054;-37
2023/03/27 03:20:59;;;;;;;0.90;0.30;;;16.70;1.00;;;;;;5012528;28;20109;-37
2023/03/27 03:23:26;;;;;;;2.00;0.63;;;16.70;1.00;;;;;;4994250;28;20057;-37
2023/03/27 03:25:55;;;;;;;2.17;0.45;;;16.70;1.00;;;;;;5012916;28;20472;-38
2023/03/27 03:28:26;;;;;;;3.28;0.85;;;16.70;1.00;;;;;;4994713;28;20066;-37
2023/03/27 03:30:53;;;;;;;3.85;0.52;;;16.60;1.00;;;;;;5012390;28;20049;-37
2023/03/27 03:33:21;;;;;;;3.53;0.75;;;16.60;1.00;;;;;;4994422;28;20042;-37
2023/03/27 03:35:49;;;;;;;3.30;0.57;;;16.60;1.00;;;;;;4994799;28;20525;-38
2023/03/27 03:38:36;;;;;;;2.42;0.57;;;16.60;1.00;;;;;;5011487;28;20050;-37
2023/03/27 03:41:08;;;;;;;2.60;0.73;;;16.60;1.00;;;;;;4994681;28;20568;-37
2023/03/27 03:43:35;;;;;;;3.08;0.25;;;16.60;1.00;;;;;;4993968;28;20069;-37
2023/03/27 03:46:02;;;;;;;1.98;0.90;;;16.60;1.00;;;;;;4994618;28;20501;-37
2023/03/27 03:48:29;;;;;;;1.92;0.75;;;16.60;1.00;;;;;;4994587;28;20046;-37
2023/03/27 03:51:06;;;;;;;2.50;1.15;;;16.50;1.00;;;;;;4994695;28;20046;-54
2023/03/27 03:53:33;;;;;;;1.30;0.45;;;16.50;1.00;;;;;;4997001;28;20062;-36
2023/03/27 03:56:00;;;;;;;1.95;0.30;;;16.50;1.00;;;;;;4994477;28;20133;-36
2023/03/27 03:58:28;;;;;;;4.40;0.40;;;16.50;1.00;;;;;;5010919;28;20050;-36
2023/03/27 04:01:03;;;;;;;2.15;0.68;;;16.40;1.00;;;;;;5010774;28;20136;-36
2023/03/27 04:03:40;;;;;;;4.22;0.55;;;16.50;1.00;;;;;;4993807;28;20377;-36
2023/03/27 04:06:09;;;;;;;2.60;0.77;;;16.50;1.00;;;;;;4994385;28;20038;-36
2023/03/27 04:08:36;;;;;;;0.98;0.30;;;16.40;1.00;;;;;;5013749;28;20509;-36
2023/03/27 04:11:04;;;;;;;2.33;0.90;;;16.40;1.00;;;;;;5015878;28;20441;-36
2023/03/27 04:14:03;;;;;;;4.20;0.98;;;16.40;1.00;;;;;;4986693;28;20401;-36
2023/03/27 04:16:36;;;;;;;4.13;0.65;;;16.40;1.00;;;;;;5014691;28;20100;-36
2023/03/27 04:19:23;;;;;;;6.97;2.40;;;16.40;1.00;;;;;;5015469;28;20140;-36
2023/03/27 04:22:00;;;;;;;6.88;0.60;;;16.40;1.00;;;;;;4998201;28;20096;-36
2023/03/27 04:24:30;;;;;;;3.42;0.52;;;16.40;1.00;;;;;;5013605;28;20042;-36
2023/03/27 04:27:00;;;;;;;10.20;1.15;;;16.40;1.00;;;;;;4998184;28;20068;-36
2023/03/27 04:29:42;;;;;;;2.00;1.02;;;16.30;1.00;;;;;;5015659;28;20038;-35
2023/03/27 04:32:27;;;;;;;7.28;0.80;;;16.30;1.00;;;;;;5015250;28;20129;-36
2023/03/27 04:35:13;;;;;;;4.55;0.70;;;16.30;1.00;;;;;;5015998;28;20107;-35
2023/03/27 04:37:47;;;;;;;5.75;1.25;;;16.30;1.00;;;;;;5014301;28;20053;-35
2023/03/27 04:40:34;;;;;;;10.25;0.65;;;16.20;1.00;;;;;;5001521;28;20112;-36
2023/03/27 04:43:01;;;;;;;3.63;0.50;;;16.20;1.00;;;;;;5013309;28;20574;-36
2023/03/27 04:45:31;;;;;;;3.28;0.93;;;16.20;1.00;;;;;;4997779;28;20072;-35
2023/03/27 04:47:58;;;;;;;5.38;0.75;;;16.20;1.00;;;;;;5014113;28;20076;-36
2023/03/27 04:50:24;;;;;;;6.40;0.90;;;16.20;1.00;;;;;;4997780;28;20046;-36
2023/03/27 04:52:57;;;;;;;5.53;0.93;;;16.20;1.00;;;;;;5013088;28;20099;-36
2023/03/27 04:55:26;;;;;;;4.13;0.82;;;16.10;1.00;;;;;;5014007;28;20505;-35
2023/03/27 04:57:55;;;;;;;7.13;1.52;;;16.10;1.00;;;;;;4997527;28;20129;-36
2023/03/27 05:00:23;;;;;;;2.67;0.70;;;16.10;1.00;;;;;;4997227;28;20077;-36
2023/03/27 05:03:19;;;;;;;2.63;0.55;;;16.10;1.00;;;;;;4977770;28;20046;-36
2023/03/27 05:06:04;;;;;;;1.92;0.45;;;16.10;1.00;;;;;;4997313;28;20100;-36
2023/03/27 05:08:32;;;;;;;1.10;0.45;;;16.10;1.00;;;;;;4997408;28;20053;-36
2023/03/27 05:10:59;;;;;;;2.45;0.57;;;16.10;1.00;;;;;;4997258;28;20096;-36
2023/03/27 05:13:29;;;;;;;3.58;0.70;;;16.10;1.00;;;;;;4996582;28;20153;-36
2023/03/27 05:15:58;;;;;;;7.90;1.02;;;16.00;1.00;;;;;;4997278;28;20054;-36
2023/03/27 05:18:29;;;;;;;3.45;0.55;;;16.00;1.00;;;;;;4997142;28;20050;-36
2023/03/27 05:20:57;;;;;;;3.58;0.60;;;16.00;1.00;;;;;;4996192;28;20057;-37
2023/03/27 05:23:25;;;;;;;4.55;0.80;;;16.00;1.00;;;;;;5012671;28;20058;-36
2023/03/27 05:25:55;;;;;;;3.08;0.82;;;16.00;1.00;;;;;;4994975;28;20048;-36
2023/03/27 05:28:35;;;;;;;0.82;0.25;;;16.00;1.00;;;;;;4966729;28;20441;-36
2023/03/27 05:31:02;;;;;;;4.10;0.75;;;15.90;1.00;;;;;;4983182;28;20148;-36
2023/03/27 05:33:38;;;;;;;1.95;0.40;;;15.90;1.00;;;;;;4981667;28;20042;-36
2023/03/27 05:36:08;;;;;;;1.65;0.40;;;15.90;1.00;;;;;;4996649;28;20535;-36
2023/03/27 05:38:41;;;;;;;3.87;0.50;;;15.90;1.00;;;;;;4996788;28;20068;-35
2023/03/27 05:41:14;;;;;;;;;;;15.90;1.00;;;;;;4997216;28;20509;-36
2023/03/27 05:43:45;;;;;;;3.92;0.40;;;15.90;1.00;;;;;;5012131;28;19921;-36
2023/03/27 05:46:14;;;;;;;3.67;0.60;;;15.80;1.00;;;;;;4996566;28;20520;-36
2023/03/27 05:49:03;;;;;;;2.85;0.60;;;15.80;1.00;;;;;;4996501;28;20516;-36
2023/03/27 05:51:30;;;;;;;3.33;0.50;;;15.80;1.00;;;;;;4996190;28;20116;-36
2023/03/27 05:53:57;;;;;;;1.05;0.40;;;15.80;1.00;;;;;;4995547;28;20046;-36
2023/03/27 05:56:33;;;;;;;2.17;0.93;;;15.80;1.00;;;;;;4996476;28;20053;-39
2023/03/27 05:59:02;;;;;;;1.45;0.50;;;15.80;1.00;;;;;;5012671;28;20567;-36
2023/03/27 06:01:34;;;;;;;2.28;0.82;;;15.80;1.00;;;;;;5013946;28;20037;-36
2023/03/27 06:04:03;;;;;;;3.78;0.40;;;15.80;1.00;;;;;;4979480;28;20140;-36
2023/03/27 06:06:50;;;;;;;3.08;0.43;;;15.80;1.00;;;;;;5013637;28;20104;-36
2023/03/27 06:09:16;;;;;;;3.53;0.50;;;15.70;1.00;;;;;;4996459;28;20049;-36
2023/03/27 06:11:59;;;;;;;1.00;0.20;;;15.70;1.00;;;;;;4996106;28;20048;-36
2023/03/27 06:14:26;;;;;;;4.13;1.15;;;15.70;1.00;;;;;;4995431;28;20049;-36
2023/03/27 06:17:08;;;;;;;3.43;0.57;;;15.70;1.00;;;;;;4995990;28;20521;-35
2023/03/27 06:19:42;;;;;;;1.25;0.30;;;15.70;1.00;;;;;;4995884;28;20517;-36
2023/03/27 06:22:09;;;;;;;2.35;0.55;;;15.70;1.00;;;;;;5011967;28;20053;-36
2023/03/27 06:24:37;;;;;;;3.10;0.38;;;15.70;1.00;;;;;;4995274;28;20505;-36
2023/03/27 06:27:04;;;;;;;2.22;0.28;;;15.70;1.00;;;;;;4995913;28;20038;-36
2023/03/27 06:29:36;;;;;;;4.63;1.27;;;15.70;1.00;;;;;;4995753;28;20502;-36
2023/03/27 06:32:03;;;;;;;1.88;0.32;;;15.70;1.00;;;;;;4995694;28;20042;-36
2023/03/27 06:34:35;;;;;;;1.48;0.57;;;15.70;1.00;;;;;;4995310;28;20103;-36
2023/03/27 06:37:14;;;;;;;11.73;1.10;;;15.70;1.00;;;;;;4995694;28;20049;-36
2023/03/27 06:39:43;;;;;;;1.33;0.30;;;15.70;1.00;;;;;;4995945;28;20242;-36
2023/03/27 06:42:09;;;;;;;3.50;0.57;;;15.70;1.00;;;;;;5013156;28;20215;-36
2023/03/27 06:44:55;;;;;;;5.15;0.65;;;15.70;1.00;;;;;;5012965;28;20061;-36
2023/03/27 06:47:54;;;;;;;2.58;0.50;;;15.60;1.00;;;;;;5012996;28;20108;-36
2023/03/27 06:50:42;;;;;;;3.88;0.52;;;15.60;1.00;;;;;;5012962;28;20461;-36
2023/03/27 06:53:15;;;;;;;2.55;0.40;;;15.60;1.00;;;;;;4994520;28;20046;-36
2023/03/27 06:55:54;;;;;;;3.67;0.50;;;15.60;1.00;;;;;;5011747;28;20468;-36
2023/03/27 06:58:23;;;;;;;0.82;0.40;;;15.60;1.00;;;;;;4995387;28;20532;-36
2023/03/27 07:00:49;;;;;;;2.75;0.40;;;15.60;1.00;;;;;;5012643;28;20413;-36
2023/03/27 07:03:19;;;;;;;2.08;0.40;;;15.60;1.00;;;;;;5012089;28;20060;-36
2023/03/27 07:06:05;;;;;;;3.30;0.77;;;15.60;1.00;;;;;;5012951;28;20044;-36
2023/03/27 07:09:01;;;;;;;4.07;0.50;;;15.60;1.00;;;;;;5000987;28;20072;-36
2023/03/27 07:11:29;;;;;;;1.45;0.20;;;15.60;1.00;;;;;;4994908;28;20050;-36
2023/03/27 07:14:06;;;;;;;3.58;1.27;;;15.60;1.00;;;;;;4993831;28;20042;-36
2023/03/27 07:16:33;;;;;;;1.63;0.60;;;15.60;1.00;;;;;;4994905;28;20045;-36
2023/03/27 07:19:00;;;;;;;2.33;0.70;;;15.60;1.00;;;;;;5012628;28;20049;-36
2023/03/27 07:21:29;;;;;;;2.33;0.55;;;15.60;1.00;;;;;;5012388;28;20088;-36
2023/03/27 07:23:58;;;;;;;3.90;0.30;;;15.50;1.00;;;;;;4994215;28;20050;-36
2023/03/27 07:26:31;;;;;;;2.60;0.25;;;15.50;1.00;;;;;;4994743;28;20038;-36
2023/03/27 07:29:01;;;;;;;2.10;0.50;;;15.50;1.00;;;;;;4994868;28;20046;-36
2023/03/27 07:31:29;;;;;;;3.97;0.50;;;15.50;1.00;;;;;;4994692;28;20048;-36
2023/03/27 07:34:16;;;;;;;1.73;0.50;;;15.50;1.00;;;;;;4993863;28;20053;-36
2023/03/27 07:37:06;;;;;;;2.33;0.75;;;15.50;1.00;;;;;;4983951;28;20057;-36
2023/03/27 07:39:35;;;;;;;2.47;0.50;;;15.50;1.00;;;;;;4994427;28;20061;-36
2023/03/27 07:42:02;;;;;;;1.05;0.30;;;15.50;1.00;;;;;;5010830;28;20070;-36
2023/03/27 07:44:41;;;;;;;5.65;0.55;;;15.50;1.00;;;;;;4994187;28;20056;-36
2023/03/27 07:47:08;;;;;;;1.63;0.68;;;15.50;1.00;;;;;;4994484;28;20050;-36
2023/03/27 07:49:35;;;;;;;1.73;0.40;;;15.50;1.00;;;;;;5012206;28;20405;-36
2023/03/27 07:52:08;;;;;;;1.38;0.55;;;15.50;1.00;;;;;;4994189;28;20138;-36
2023/03/27 07:54:42;;;;;;;2.38;0.50;;;15.50;1.00;;;;;;4994139;28;20034;-36
2023/03/27 07:57:12;;;;;;;2.05;0.30;;;15.50;1.00;;;;;;4994443;28;20145;-36
2023/03/27 07:59:56;;;;;;;2.00;0.40;;;15.40;1.00;;;;;;4994098;28;20515;-36
2023/03/27 08:02:30;;;;;;;1.88;0.40;;;15.40;1.00;;;;;;5012165;28;20060;-36
2023/03/27 08:04:57;;;;;;;2.47;0.32;;;15.40;1.00;;;;;;4993994;28;20053;-36
2023/03/27 08:07:24;;;;;;;0.57;0.20;;;15.40;1.00;;;;;;4994283;28;20041;-36
2023/03/27 08:09:56;;;;;;;4.10;0.50;;;15.40;1.00;;;;;;4994267;28;20139;-36
2023/03/27 08:12:23;;;;;;;1.45;0.25;;;15.40;1.00;;;;;;4993952;28;20061;-36
2023/03/27 08:14:56;;;;;;;1.92;0.30;;;15.40;1.00;;;;;;4994032;28;20042;-36
2023/03/27 08:17:26;;;;;;;4.70;0.98;;;15.40;1.00;;;;;;4994369;28;20042;-36
2023/03/27 08:19:54;;;;;;;2.30;0.52;;;15.40;1.00;;;;;;4994087;28;20046;-36
2023/03/27 08:22:24;;;;;;;2.20;0.40;;;15.40;1.00;;;;;;4993913;28;20050;-36
2023/03/27 08:25:09;;;;;;;1.00;0.22;;;15.40;1.00;;;;;;5012087;28;20497;-36
2023/03/27 08:27:38;;;;;;;1.00;0.30;;;15.40;1.00;;;;;;4994413;28;20046;-36
2023/03/27 08:30:05;;;;;;;1.48;0.50;;;15.40;1.00;;;;;;4994144;28;20516;-36
2023/03/27 08:32:38;;;;;;;1.25;0.20;;;15.40;1.00;;;;;;4993679;28;20042;-36
2023/03/27 08:35:08;;;;;;;2.05;0.70;;;15.40;1.00;;;;;;4994235;28;20513;-36
2023/03/27 08:37:35;;;;;;;2.17;0.65;;;15.40;1.00;;;;;;5011814;28;20080;-36
2023/03/27 08:40:30;;;;;;;1.58;0.50;;;15.40;1.00;;;;;;4994224;28;20449;-36
2023/03/27 08:43:20;;;;;;;1.85;0.20;;;15.40;1.00;;;;;;4993335;28;20045;-36
2023/03/27 08:46:08;;;;;;;1.20;0.40;;;15.40;1.00;;;;;;4991937;28;20046;-36
2023/03/27 08:48:47;;;;;;;2.70;0.30;;;15.40;1.00;;;;;;4994096;28;20046;-36
2023/03/27 08:51:21;;;;;;;2.78;0.60;;;15.40;1.00;;;;;;4977812;28;20044;-36
2023/03/27 08:54:01;;;;;;;2.15;0.22;;;15.40;1.00;;;;;;4993213;28;20104;-36
2023/03/27 08:56:30;;;;;;;2.07;0.60;;;15.50;1.00;;;;;;4996901;28;20405;-36
2023/03/27 08:58:57;;;;;;;1.02;0.38;;;15.50;1.00;;;;;;4997481;28;20505;-36
2023/03/27 09:01:59;;;;;;;1.13;0.43;;;15.50;1.00;;;;;;4997405;28;20053;-36
2023/03/27 09:04:51;;;;;;;2.92;0.40;;;15.50;1.00;;;;;;4988896;28;20424;-36
2023/03/27 09:07:31;;;;;;;1.38;0.47;;;15.60;1.00;;;;;;4997332;28;20424;-36
2023/03/27 09:10:14;;;;;;;0.90;0.13;;;15.60;1.00;;;;;;5013725;28;20100;-36
2023/03/27 09:13:03;;;;;;;2.80;0.63;;;15.60;1.00;;;;;;4996540;28;20153;-36
2023/03/27 09:15:40;;;;;;;2.03;0.30;;;15.60;1.00;;;;;;4997191;28;20050;-36
2023/03/27 09:18:19;;;;;;;3.03;0.43;;;15.60;1.00;;;;;;4981016;28;20050;-37
2023/03/27 09:20:52;;;;;;;3.22;1.00;;;15.50;1.00;;;;;;5013447;28;20069;-37
2023/03/27 09:23:35;;;;;;;3.97;0.60;;;15.60;1.00;;;;;;4996437;28;20050;-36
2023/03/27 09:26:33;;;;;;;1.63;0.32;;;15.60;1.00;;;;;;5014264;28;20054;-36
2023/03/27 09:29:30;;;;;;;2.78;0.32;;;15.60;1.00;;;;;;5014398;28;20172;-36
2023/03/27 09:32:16;;;;;;;1.85;0.30;;;15.60;1.00;;;;;;5012907;28;20089;-36
2023/03/27 09:34:44;;;;;;;3.58;0.60;;;15.60;1.00;;;;;;4996441;28;20042;-36
2023/03/27 09:37:15;;;;;;;1.98;0.90;;;15.70;1.00;;;;;;4996876;28;20128;-36
2023/03/27 09:39:51;;;;;;;1.05;0.47;;;15.70;1.00;;;;;;4996698;28;20050;-36
2023/03/27 09:42:38;;;;;;;3.13;0.52;;;15.80;1.00;;;;;;4996339;28;20050;-36
2023/03/27 09:45:08;;;;;;;1.55;0.75;;;15.80;1.00;;;;;;5014492;28;20053;-37
2023/03/27 09:48:02;;;;;;;5.13;0.85;;;15.80;1.00;;;;;;4996659;28;20050;-37
2023/03/27 09:50:46;;;;;;;1.80;0.52;;;15.90;1.00;;;;;;4996571;28;20092;-37
2023/03/27 09:53:25;;;;;;;2.63;0.65;;;15.90;1.00;;;;;;5026588;22;20140;-34
2023/03/27 09:56:16;;;;;;;2.38;0.30;;;15.90;1.00;;;;;;5015951;28;20045;-36
2023/03/27 09:58:49;;;;;;;2.35;0.60;;;15.90;1.00;;;;;;5015992;28;20132;-33
2023/03/27 10:01:33;;;;;;;1.85;0.43;;;16.00;1.00;;;;;;5015845;28;20133;-33
2023/03/27 10:04:24;;;;;;;1.75;0.40;;;16.00;1.00;;;;;;5015287;28;20360;-35
2023/03/27 10:07:00;;;;;;;2.97;0.75;;;16.10;1.00;;;;;;5015479;28;20550;-33
2023/03/27 10:10:10;;;;;;;3.42;0.57;;;16.00;1.00;;;;;;5033600;28;20071;-33
2023/03/27 10:13:03;;;;;;;2.42;0.38;;;16.10;1.00;;;;;;5021924;28;20129;-35
2023/03/27 10:15:40;;;;;;;2.17;0.50;;;16.10;1.00;;;;;;5015681;28;20046;-32
2023/03/27 10:18:25;;;;;;;1.15;0.25;;;16.10;1.00;;;;;;5015546;28;20136;-34
2023/03/27 10:21:09;;;;;;;1.58;0.40;;;16.10;1.00;;;;;;5015609;28;20041;-33
2023/03/27 10:23:43;;;;;;;2.42;0.57;;;16.20;1.00;;;;;;5014749;28;20053;-33
2023/03/27 10:26:26;;;;;;;3.10;0.82;;;16.20;1.00;;;;;;5015323;28;20049;-37
2023/03/27 10:29:17;;;;;;;4.22;0.60;;;16.20;1.00;;;;;;5015231;28;20053;-31
2023/03/27 10:31:52;;;;;;;3.58;0.50;;;16.20;1.00;;;;;;5015361;28;20408;-35
2023/03/27 10:34:56;;;;;;;0.70;0.25;;;16.20;1.00;;;;;;4988666;28;20405;-32
2023/03/27 10:37:52;;;;;;;3.70;0.80;;;16.20;1.00;;;;;;5032918;28;20053;-33
2023/03/27 10:40:50;;;;;;;1.55;0.60;;;16.20;1.00;;;;;;5015288;28;20053;-35
2023/03/27 10:43:48;;;;;;;2.92;0.75;;;16.20;1.00;;;;;;5014189;28;20458;-33
2023/03/27 10:46:20;;;;;;;1.90;0.65;;;16.10;1.00;;;;;;5031578;28;20052;-34
2023/03/27 10:49:08;;;;;;;2.20;0.47;;;16.20;1.00;;;;;;5015221;28;20092;-32
2023/03/27 10:52:16;;;;;;;2.33;0.45;;;16.20;1.00;;;;;;5014801;28;20049;-31
2023/03/27 10:55:21;;;;;;;3.28;0.60;;;16.20;1.00;;;;;;4971621;28;20117;-35
2023/03/27 10:57:54;;;;;;;2.20;0.60;;;16.20;1.00;;;;;;5014954;28;20076;-34
2023/03/27 11:00:37;;;;;;;1.42;0.40;;;16.20;1.00;;;;;;5014917;28;20132;-31
2023/03/27 11:03:33;;;;;;;1.45;0.50;;;16.20;1.00;;;;;;5013910;28;20045;-37
2023/03/27 11:06:06;;;;;;;2.65;0.43;;;16.20;1.00;;;;;;5014787;28;20053;-32
2023/03/27 11:09:14;;;;;;;2.67;0.50;;;16.20;1.00;;;;;;5014709;28;20135;-34
2023/03/27 11:12:26;;;;;;;4.10;0.88;;;16.20;1.00;;;;;;5014686;28;20551;-38
2023/03/27 11:15:03;;;;;;;3.25;0.50;;;16.20;1.00;;;;;;4983644;28;20045;-33
2023/03/27 11:17:52;;;;;;;2.58;0.50;;;16.20;1.00;;;;;;5013915;28;20501;-32
2023/03/27 11:20:32;;;;;;;2.67;0.57;;;16.20;1.00;;;;;;5014573;28;20080;-33
2023/03/27 11:23:33;;;;;;;4.45;0.50;;;16.20;1.00;;;;;;5013496;28;20053;-31
2023/03/27 11:26:21;;;;;;;3.95;0.77;;;16.10;1.00;;;;;;5014269;28;20045;-31
2023/03/27 11:29:08;;;;;;;2.17;0.30;;;16.20;1.00;;;;;;5032171;28;20041;-35
2023/03/27 11:31:51;;;;;;;1.38;0.50;;;16.20;1.00;;;;;;5014379;28;20052;-32
2023/03/27 11:34:51;;;;;;;1.92;0.60;;;16.20;1.00;;;;;;5013693;28;20151;-36
2023/03/27 11:37:51;;;;;;;2.05;0.60;;;16.20;1.00;;;;;;5030922;28;20081;-31
2023/03/27 11:40:35;;;;;;;1.85;0.50;;;16.20;1.00;;;;;;5014654;28;20494;-32
2023/03/27 11:43:03;;;;;;;1.77;0.68;;;16.20;1.00;;;;;;5031090;28;20041;-31
2023/03/27 11:46:04;;;;;;;1.63;0.65;;;16.10;1.00;;;;;;5030903;28;20045;-34
2023/03/27 11:48:55;;;;;;;2.90;0.40;;;16.20;1.00;;;;;;5006502;28;20053;-31
2023/03/27 11:52:00;;;;;;;2.35;0.68;;;16.10;1.00;;;;;;5014324;28;20049;-31
2023/03/27 11:54:48;;;;;;;4.40;1.05;;;16.10;1.00;;;;;;5013399;28;20140;-33
2023/03/27 11:57:24;;;;;;;2.17;0.68;;;16.10;1.00;;;;;;5014085;28;20045;-36
2023/03/27 12:00:15;;;;;;;2.47;0.50;;;16.10;1.00;;;;;;5014056;28;20055;-33
2023/03/27 12:03:08;;;;;;;2.38;0.65;;;16.10;1.00;;;;;;5030951;28;20412;-36
2023/03/27 12:05:36;;;;;;;4.90;0.88;;;16.10;1.00;;;;;;5014071;28;20046;-37
2023/03/27 12:08:30;;;;;;;2.40;0.52;;;16.10;1.00;;;;;;5013892;28;20041;-31
2023/03/27 12:11:03;;;;;;;5.10;0.73;;;16.10;1.00;;;;;;5013851;28;20041;-34
2023/03/27 12:13:50;;;;;;;3.47;0.77;;;16.10;1.00;;;;;;5013116;28;20416;-37
2023/03/27 12:16:56;;;;;;;4.22;0.52;;;16.10;1.00;;;;;;5013892;28;20420;-34
2023/03/27 12:19:53;;;;;;;3.65;0.60;;;16.10;1.00;;;;;;5013823;28;20045;-36
2023/03/27 12:22:50;;;;;;;2.10;0.45;;;16.10;1.00;;;;;;5013439;28;20050;-31
2023/03/27 12:25:40;;;;;;;3.03;0.40;;;16.00;1.00;;;;;;5013530;28;20045;-35
2023/03/27 12:28:54;;;;;;;4.13;0.82;;;16.00;1.00;;;;;;5031053;28;20049;-34
2023/03/27 12:31:40;;;;;;;1.58;0.45;;;16.00;1.00;;;;;;5017612;28;20429;-35
2023/03/27 12:34:28;;;;;;;3.28;0.70;;;16.00;1.00;;;;;;5016860;28;20045;-33
2023/03/27 12:36:58;;;;;;;1.65;0.47;;;16.00;1.00;;;;;;5017578;28;20049;-37
2023/03/27 12:39:26;;;;;;;3.80;0.70;;;16.00;1.00;;;;;;5017878;28;20459;-31
2023/03/27 12:41:59;;;;;;;4.78;0.52;;;16.00;1.00;;;;;;5017237;28;20068;-37
2023/03/27 12:45:04;;;;;;;1.73;0.52;;;16.00;1.00;;;;;;5016794;28;20053;-34
2023/03/27 12:47:31;;;;;;;1.88;0.40;;;16.00;1.00;;;;;;5033703;28;20042;-34
2023/03/27 12:50:18;;;;;;;1.33;0.40;;;16.00;1.00;;;;;;5017237;28;20037;-36
2023/03/27 12:52:45;;;;;;;3.35;0.60;;;16.00;1.00;;;;;;5015993;28;20064;-37
2023/03/27 12:55:28;;;;;;;2.58;0.55;;;16.00;1.00;;;;;;5017314;28;20512;-36
2023/03/27 12:57:55;;;;;;;3.42;0.35;;;16.00;1.00;;;;;;5034941;28;20385;-36
2023/03/27 13:00:52;;;;;;;2.75;0.80;;;16.00;1.00;;;;;;5020554;28;20054;-37
2023/03/27 13:03:41;;;;;;;2.40;0.60;;;15.90;1.00;;;;;;5016143;28;20563;-38
2023/03/27 13:06:39;;;;;;;2.65;0.90;;;15.90;1.00;;;;;;5034731;28;20124;-36
2023/03/27 13:09:29;;;;;;;2.13;0.68;;;15.90;1.00;;;;;;5016908;28;20072;-36
2023/03/27 13:12:36;;;;;;;2.40;0.65;;;15.90;1.00;;;;;;5034629;28;20049;-33
2023/03/27 13:15:07;;;;;;;4.97;0.85;;;15.90;1.00;;;;;;5016697;28;20103;-35
2023/03/27 13:17:48;;;;;;;1.60;0.40;;;15.90;1.00;;;;;;5016588;28;20077;-37
2023/03/27 13:20:44;;;;;;;2.05;0.52;;;15.90;1.00;;;;;;5016764;28;20077;-38
2023/03/27 13:23:56;;;;;;;2.70;0.50;;;15.90;1.00;;;;;;5033741;28;20413;-32
2023/03/27 13:26:36;;;;;;;2.20;0.52;;;15.90;1.00;;;;;;4995859;28;20096;-34
2023/03/27 13:29:17;;;;;;;2.03;0.73;;;15.90;1.00;;;;;;5016623;28;20138;-34
2023/03/27 13:31:56;;;;;;;5.20;0.65;;;15.90;1.00;;;;;;5033066;28;20064;-34
2023/03/27 13:35:15;;;;;;;1.58;0.30;;;15.90;1.00;;;;;;5029634;28;20057;-35
2023/03/27 13:37:48;;;;;;;3.58;0.68;;;15.90;1.00;;;;;;5016594;28;20159;-34
2023/03/27 13:40:23;;;;;;;3.70;0.50;;;15.90;1.00;;;;;;5016033;28;20045;-34
2023/03/27 13:43:20;;;;;;;3.33;0.43;;;15.90;1.00;;;;;;5015268;28;20049;-37
2023/03/27 13:45:58;;;;;;;2.17;0.60;;;15.90;1.00;;;;;;5016432;28;20417;-34
2023/03/27 13:48:53;;;;;;;4.88;1.00;;;15.90;1.00;;;;;;5033915;28;20141;-33
2023/03/27 13:51:27;;;;;;;5.50;0.70;;;15.80;1.00;;;;;;5033743;28;20055;-37
2023/03/27 13:54:28;;;;;;;3.22;0.73;;;15.80;1.00;;;;;;5033196;28;20060;-34
2023/03/27 13:57:10;;;;;;;3.72;0.73;;;15.80;1.00;;;;;;5016102;28;20041;-35
2023/03/27 13:59:56;;;;;;;6.97;1.20;;;15.80;1.00;;;;;;5016115;28;20046;-33